sensor_id;sensor_type;location;lat;lon;timestamp;temperature;humidity
40960;DHT22;27842;52.272;8.052;2023-03-14T00:00:12;12.80;99.90
40960;DHT22;27842;52.272;8.052;2023-03-14T00:02:40;12.70;99.90
40960;DHT22;27842;52.272;8.052;2023-03-14T00:05:06;12.80;99.90
40960;DHT22;27842;52.272;8.052;2023-03-14T00:07:34;12.80;99.90
40960;DHT22;27842;52.272;8.052;2023-03-14T00:10:02;12.70;99.90
40960;DHT22;27842;52.272;8.052;2023-03-14T00:12:29;12.80;99.90
40960;DHT22;27842;52.272;8.052;2023-03-14T00:14:55;12.70;99.90
40960;DHT22;27842;52.272;8.052;2023-03-14T00:17:20;12.80;99.90
40960;DHT22;27842;52.272;8.052;2023-03-14T00:19:46;12.70;99.90
40960;DHT22;27842;52.272;8.052;2023-03-14T00:22:12;12.70;99.90
40960;DHT22;27842;52.272;8.052;2023-03-14T00:24:37;12.70;99.90
40960;DHT22;27842;52.272;8.052;2023-03-14T00:27:03;12.70;99.90
40960;DHT22;27842;52.272;8.052;2023-03-14T00:29:28;12.70;99.90
40960;DHT22;27842;52.272;8.052;2023-03-14T00:31:54;12.70;99.90
40960;DHT22;27842;52.272;8.052;2023-03-14T00:34:19;12.60;99.90
40960;DHT22;27842;52.272;8.052;2023-03-14T00:36:45;12.60;99.90
40960;DHT22;27842;52.272;8.052;2023-03-14T00:39:10;12.70;99.90
40960;DHT22;27842;52.272;8.052;2023-03-14T00:41:36;12.60;99.90
40960;DHT22;27842;52.272;8.052;2023-03-14T00:44:14;12.60;99.90
40960;DHT22;27842;52.272;8.052;2023-03-14T00:46:40;12.60;99.90
40960;DHT22;27842;52.272;8.052;2023-03-14T00:49:05;12.60;99.90
40960;DHT22;27842;52.272;8.052;2023-03-14T00:51:31;12.60;99.90
40960;DHT22;27842;52.272;8.052;2023-03-14T00:53:56;12.60;99.90
40960;DHT22;27842;52.272;8.052;2023-03-14T00:56:22;12.60;99.90
40960;DHT22;27842;52.272;8.052;2023-03-14T00:58:47;12.50;99.90
40960;DHT22;27842;52.272;8.052;2023-03-14T01:01:16;12.50;99.90
40960;DHT22;27842;52.272;8.052;2023-03-14T01:03:42;12.50;99.90
40960;DHT22;27842;52.272;8.052;2023-03-14T01:06:15;12.40;99.90
40960;DHT22;27842;52.272;8.052;2023-03-14T01:08:41;12.40;99.90
40960;DHT22;27842;52.272;8.052;2023-03-14T01:11:09;12.40;99.90
40960;DHT22;27842;52.272;8.052;2023-03-14T01:13:35;12.40;99.90
40960;DHT22;27842;52.272;8.052;2023-03-14T01:16:03;12.40;99.90
40960;DHT22;27842;52.272;8.052;2023-03-14T01:18:30;12.40;99.90
40960;DHT22;27842;52.272;8.052;2023-03-14T01:20:56;12.40;99.90
40960;DHT22;27842;52.272;8.052;2023-03-14T01:23:22;12.40;99.90
40960;DHT22;27842;52.272;8.052;2023-03-14T01:25:47;12.30;99.90
40960;DHT22;27842;52.272;8.052;2023-03-14T01:28:13;12.30;99.90
40960;DHT22;27842;52.272;8.052;2023-03-14T01:30:39;12.20;99.90
40960;DHT22;27842;52.272;8.052;2023-03-14T01:33:04;12.20;99.90
40960;DHT22;27842;52.272;8.052;2023-03-14T01:35:30;12.30;99.90
40960;DHT22;27842;52.272;8.052;2023-03-14T01:37:55;12.20;99.90
40960;DHT22;27842;52.272;8.052;2023-03-14T01:40:21;12.20;99.90
40960;DHT22;27842;52.272;8.052;2023-03-14T01:42:58;12.20;99.90
40960;DHT22;27842;52.272;8.052;2023-03-14T01:48:40;12.20;99.90
40960;DHT22;27842;52.272;8.052;2023-03-14T01:51:11;12.20;99.90
40960;DHT22;27842;52.272;8.052;2023-03-14T01:53:39;12.20;99.90
40960;DHT22;27842;52.272;8.052;2023-03-14T01:56:06;12.20;99.90
40960;DHT22;27842;52.272;8.052;2023-03-14T01:58:33;12.20;99.90
40960;DHT22;27842;52.272;8.052;2023-03-14T02:01:03;12.20;99.90
40960;DHT22;27842;52.272;8.052;2023-03-14T02:03:30;12.20;99.90
40960;DHT22;27842;52.272;8.052;2023-03-14T02:06:00;12.20;99.90
40960;DHT22;27842;52.272;8.052;2023-03-14T02:08:27;12.20;99.90
40960;DHT22;27842;52.272;8.052;2023-03-14T02:10:53;12.20;99.90
40960;DHT22;27842;52.272;8.052;2023-03-14T02:13:20;12.20;99.90
40960;DHT22;27842;52.272;8.052;2023-03-14T02:15:47;12.30;99.90
40960;DHT22;27842;52.272;8.052;2023-03-14T02:18:14;12.20;99.90
40960;DHT22;27842;52.272;8.052;2023-03-14T02:21:01;12.10;99.90
40960;DHT22;27842;52.272;8.052;2023-03-14T02:23:58;12.20;99.90
40960;DHT22;27842;52.272;8.052;2023-03-14T02:26:27;12.20;99.90
40960;DHT22;27842;52.272;8.052;2023-03-14T02:28:57;12.20;99.90
40960;DHT22;27842;52.272;8.052;2023-03-14T02:31:23;12.10;99.90
40960;DHT22;27842;52.272;8.052;2023-03-14T02:33:49;12.10;99.90
40960;DHT22;27842;52.272;8.052;2023-03-14T02:36:17;12.10;99.90
40960;DHT22;27842;52.272;8.052;2023-03-14T02:38:55;12.00;99.90
40960;DHT22;27842;52.272;8.052;2023-03-14T02:41:26;11.90;99.90
40960;DHT22;27842;52.272;8.052;2023-03-14T02:43:54;12.00;99.90
40960;DHT22;27842;52.272;8.052;2023-03-14T02:46:21;11.90;99.90
40960;DHT22;27842;52.272;8.052;2023-03-14T02:51:16;11.80;99.90
40960;DHT22;27842;52.272;8.052;2023-03-14T02:53:42;11.70;99.90
40960;DHT22;27842;52.272;8.052;2023-03-14T02:56:09;11.70;99.90
40960;DHT22;27842;52.272;8.052;2023-03-14T02:58:35;11.70;99.90
40960;DHT22;27842;52.272;8.052;2023-03-14T03:01:01;11.60;99.90
40960;DHT22;27842;52.272;8.052;2023-03-14T03:03:27;11.60;99.90
40960;DHT22;27842;52.272;8.052;2023-03-14T03:05:54;11.50;99.90
40960;DHT22;27842;52.272;8.052;2023-03-14T03:08:22;11.50;99.90
40960;DHT22;27842;52.272;8.052;2023-03-14T03:10:48;11.60;99.90
40960;DHT22;27842;52.272;8.052;2023-03-14T03:13:17;11.50;99.90
40960;DHT22;27842;52.272;8.052;2023-03-14T03:15:44;11.40;99.90
40960;DHT22;27842;52.272;8.052;2023-03-14T03:18:09;11.50;99.90
40960;DHT22;27842;52.272;8.052;2023-03-14T03:20:35;11.50;99.90
40960;DHT22;27842;52.272;8.052;2023-03-14T03:23:01;11.50;99.90
40960;DHT22;27842;52.272;8.052;2023-03-14T03:25:27;11.40;99.90
40960;DHT22;27842;52.272;8.052;2023-03-14T03:27:53;11.30;99.90
40960;DHT22;27842;52.272;8.052;2023-03-14T03:30:18;11.30;99.90
40960;DHT22;27842;52.272;8.052;2023-03-14T03:32:44;11.30;99.90
40960;DHT22;27842;52.272;8.052;2023-03-14T03:35:10;11.30;99.90
40960;DHT22;27842;52.272;8.052;2023-03-14T03:37:36;11.20;99.90
40960;DHT22;27842;52.272;8.052;2023-03-14T03:40:02;11.20;99.90
40960;DHT22;27842;52.272;8.052;2023-03-14T03:42:31;11.10;99.90
40960;DHT22;27842;52.272;8.052;2023-03-14T03:44:57;11.10;99.90
40960;DHT22;27842;52.272;8.052;2023-03-14T03:47:23;11.10;99.90
40960;DHT22;27842;52.272;8.052;2023-03-14T03:49:48;11.00;99.90
40960;DHT22;27842;52.272;8.052;2023-03-14T03:52:14;11.00;99.90
40960;DHT22;27842;52.272;8.052;2023-03-14T03:54:39;11.00;99.90
40960;DHT22;27842;52.272;8.052;2023-03-14T03:57:05;10.90;99.90
40960;DHT22;27842;52.272;8.052;2023-03-14T03:59:30;10.90;99.90
40960;DHT22;27842;52.272;8.052;2023-03-14T04:01:56;10.90;99.90
40960;DHT22;27842;52.272;8.052;2023-03-14T04:04:21;10.90;99.90
40960;DHT22;27842;52.272;8.052;2023-03-14T04:06:47;10.90;99.90
40960;DHT22;27842;52.272;8.052;2023-03-14T04:09:13;10.80;99.90
40960;DHT22;27842;52.272;8.052;2023-03-14T04:11:39;10.90;99.90
40960;DHT22;27842;52.272;8.052;2023-03-14T04:14:05;10.90;99.90
40960;DHT22;27842;52.272;8.052;2023-03-14T04:16:31;10.80;99.90
40960;DHT22;27842;52.272;8.052;2023-03-14T04:19:00;10.80;99.90
40960;DHT22;27842;52.272;8.052;2023-03-14T04:21:25;10.80;99.90
40960;DHT22;27842;52.272;8.052;2023-03-14T04:23:51;10.90;99.90
40960;DHT22;27842;52.272;8.052;2023-03-14T04:26:17;10.80;99.90
40960;DHT22;27842;52.272;8.052;2023-03-14T04:28:42;10.80;99.90
40960;DHT22;27842;52.272;8.052;2023-03-14T04:31:17;10.80;99.90
40960;DHT22;27842;52.272;8.052;2023-03-14T04:33:44;10.80;99.90
40960;DHT22;27842;52.272;8.052;2023-03-14T04:36:09;10.80;99.90
40960;DHT22;27842;52.272;8.052;2023-03-14T04:38:35;10.80;99.90
40960;DHT22;27842;52.272;8.052;2023-03-14T04:41:01;10.70;99.90
40960;DHT22;27842;52.272;8.052;2023-03-14T04:43:27;10.70;99.90
40960;DHT22;27842;52.272;8.052;2023-03-14T04:45:56;10.80;99.90
40960;DHT22;27842;52.272;8.052;2023-03-14T04:48:23;10.80;99.90
40960;DHT22;27842;52.272;8.052;2023-03-14T04:50:49;10.80;99.90
40960;DHT22;27842;52.272;8.052;2023-03-14T04:53:16;10.80;99.90
40960;DHT22;27842;52.272;8.052;2023-03-14T04:55:41;10.80;99.90
40960;DHT22;27842;52.272;8.052;2023-03-14T04:58:07;10.80;99.90
40960;DHT22;27842;52.272;8.052;2023-03-14T05:00:32;10.80;99.90
40960;DHT22;27842;52.272;8.052;2023-03-14T05:02:58;10.70;99.90
40960;DHT22;27842;52.272;8.052;2023-03-14T05:05:24;10.70;99.90
40960;DHT22;27842;52.272;8.052;2023-03-14T05:07:49;10.80;99.90
40960;DHT22;27842;52.272;8.052;2023-03-14T05:10:15;10.80;99.90
40960;DHT22;27842;52.272;8.052;2023-03-14T05:12:44;10.80;99.90
40960;DHT22;27842;52.272;8.052;2023-03-14T05:15:10;10.80;99.90
40960;DHT22;27842;52.272;8.052;2023-03-14T05:17:36;10.80;99.90
40960;DHT22;27842;52.272;8.052;2023-03-14T05:20:02;10.80;99.90
40960;DHT22;27842;52.272;8.052;2023-03-14T05:22:33;10.70;99.90
40960;DHT22;27842;52.272;8.052;2023-03-14T05:24:58;10.70;99.90
40960;DHT22;27842;52.272;8.052;2023-03-14T05:27:24;10.70;99.90
40960;DHT22;27842;52.272;8.052;2023-03-14T05:29:50;10.70;99.90
40960;DHT22;27842;52.272;8.052;2023-03-14T05:32:15;10.70;99.90
40960;DHT22;27842;52.272;8.052;2023-03-14T05:34:41;10.70;99.90
40960;DHT22;27842;52.272;8.052;2023-03-14T05:37:06;10.70;99.90
40960;DHT22;27842;52.272;8.052;2023-03-14T05:39:32;10.70;99.90
40960;DHT22;27842;52.272;8.052;2023-03-14T05:41:58;10.80;99.90
40960;DHT22;27842;52.272;8.052;2023-03-14T05:44:24;10.80;99.90
40960;DHT22;27842;52.272;8.052;2023-03-14T05:46:49;10.80;99.90
40960;DHT22;27842;52.272;8.052;2023-03-14T05:49:15;10.80;99.90
40960;DHT22;27842;52.272;8.052;2023-03-14T05:51:41;10.80;99.90
40960;DHT22;27842;52.272;8.052;2023-03-14T05:54:06;10.80;99.90
40960;DHT22;27842;52.272;8.052;2023-03-14T05:56:32;10.80;99.90
40960;DHT22;27842;52.272;8.052;2023-03-14T05:58:58;10.80;99.90
40960;DHT22;27842;52.272;8.052;2023-03-14T06:01:23;10.80;99.90
40960;DHT22;27842;52.272;8.052;2023-03-14T06:03:49;10.80;99.90
40960;DHT22;27842;52.272;8.052;2023-03-14T06:06:15;10.90;99.90
40960;DHT22;27842;52.272;8.052;2023-03-14T06:08:42;10.90;99.90
40960;DHT22;27842;52.272;8.052;2023-03-14T06:11:07;10.80;99.90
40960;DHT22;27842;52.272;8.052;2023-03-14T06:13:33;10.90;99.90
40960;DHT22;27842;52.272;8.052;2023-03-14T06:15:59;10.90;99.90
40960;DHT22;27842;52.272;8.052;2023-03-14T06:18:24;10.90;99.90
40960;DHT22;27842;52.272;8.052;2023-03-14T06:20:54;10.90;99.90
40960;DHT22;27842;52.272;8.052;2023-03-14T06:23:20;10.90;99.90
40960;DHT22;27842;52.272;8.052;2023-03-14T06:25:46;10.80;99.90
40960;DHT22;27842;52.272;8.052;2023-03-14T06:28:12;10.80;99.90
40960;DHT22;27842;52.272;8.052;2023-03-14T06:30:37;10.80;99.90
40960;DHT22;27842;52.272;8.052;2023-03-14T06:33:03;10.80;99.90
40960;DHT22;27842;52.272;8.052;2023-03-14T06:35:28;10.80;99.90
40960;DHT22;27842;52.272;8.052;2023-03-14T06:37:54;10.80;99.90
40960;DHT22;27842;52.272;8.052;2023-03-14T06:40:20;10.80;99.90
40960;DHT22;27842;52.272;8.052;2023-03-14T06:42:46;10.80;99.90
40960;DHT22;27842;52.272;8.052;2023-03-14T06:45:13;10.80;99.90
40960;DHT22;27842;52.272;8.052;2023-03-14T06:47:38;10.80;99.90
40960;DHT22;27842;52.272;8.052;2023-03-14T06:50:06;10.80;99.90
40960;DHT22;27842;52.272;8.052;2023-03-14T06:52:32;10.80;99.90
40960;DHT22;27842;52.272;8.052;2023-03-14T06:54:57;10.80;99.90
40960;DHT22;27842;52.272;8.052;2023-03-14T06:57:23;10.80;99.90
40960;DHT22;27842;52.272;8.052;2023-03-14T06:59:49;10.90;99.90
40960;DHT22;27842;52.272;8.052;2023-03-14T07:02:14;10.90;99.90
40960;DHT22;27842;52.272;8.052;2023-03-14T07:04:40;10.80;99.90
40960;DHT22;27842;52.272;8.052;2023-03-14T07:07:06;10.80;99.90
40960;DHT22;27842;52.272;8.052;2023-03-14T07:09:33;10.80;99.90
40960;DHT22;27842;52.272;8.052;2023-03-14T07:12:03;10.80;99.90
40960;DHT22;27842;52.272;8.052;2023-03-14T07:14:30;10.80;99.90
40960;DHT22;27842;52.272;8.052;2023-03-14T07:16:55;10.80;99.90
40960;DHT22;27842;52.272;8.052;2023-03-14T07:19:26;10.70;99.90
40960;DHT22;27842;52.272;8.052;2023-03-14T07:21:52;10.70;99.90
40960;DHT22;27842;52.272;8.052;2023-03-14T07:24:18;10.60;99.90
40960;DHT22;27842;52.272;8.052;2023-03-14T07:26:44;10.60;99.90
40960;DHT22;27842;52.272;8.052;2023-03-14T07:29:09;10.60;99.90
40960;DHT22;27842;52.272;8.052;2023-03-14T07:31:35;10.70;99.90
40960;DHT22;27842;52.272;8.052;2023-03-14T07:34:00;10.70;99.90
40960;DHT22;27842;52.272;8.052;2023-03-14T07:36:26;10.60;99.90
40960;DHT22;27842;52.272;8.052;2023-03-14T07:38:51;10.60;99.90
40960;DHT22;27842;52.272;8.052;2023-03-14T07:41:18;10.50;99.90
40960;DHT22;27842;52.272;8.052;2023-03-14T07:43:47;10.60;99.90
40960;DHT22;27842;52.272;8.052;2023-03-14T07:46:14;10.50;99.90
40960;DHT22;27842;52.272;8.052;2023-03-14T07:48:40;10.50;99.90
40960;DHT22;27842;52.272;8.052;2023-03-14T07:51:06;10.50;99.90
40960;DHT22;27842;52.272;8.052;2023-03-14T07:53:32;10.50;99.90
40960;DHT22;27842;52.272;8.052;2023-03-14T07:55:58;10.50;99.90
40960;DHT22;27842;52.272;8.052;2023-03-14T07:58:23;10.50;99.90
40960;DHT22;27842;52.272;8.052;2023-03-14T08:00:50;10.50;99.90
40960;DHT22;27842;52.272;8.052;2023-03-14T08:03:16;10.40;99.90
40960;DHT22;27842;52.272;8.052;2023-03-14T08:05:42;10.40;99.90
40960;DHT22;27842;52.272;8.052;2023-03-14T08:08:07;10.50;99.90
40960;DHT22;27842;52.272;8.052;2023-03-14T08:10:33;10.40;99.90
40960;DHT22;27842;52.272;8.052;2023-03-14T08:13:00;10.50;99.90
40960;DHT22;27842;52.272;8.052;2023-03-14T08:15:26;10.40;99.90
40960;DHT22;27842;52.272;8.052;2023-03-14T08:17:53;10.50;99.90
40960;DHT22;27842;52.272;8.052;2023-03-14T08:20:20;10.50;99.90
40960;DHT22;27842;52.272;8.052;2023-03-14T08:22:46;10.50;99.90
40960;DHT22;27842;52.272;8.052;2023-03-14T08:25:12;10.50;99.90
40960;DHT22;27842;52.272;8.052;2023-03-14T08:27:38;10.50;99.90
40960;DHT22;27842;52.272;8.052;2023-03-14T08:30:09;10.60;99.90
40960;DHT22;27842;52.272;8.052;2023-03-14T08:32:35;10.60;99.90
40960;DHT22;27842;52.272;8.052;2023-03-14T08:35:01;10.60;99.90
40960;DHT22;27842;52.272;8.052;2023-03-14T08:37:26;10.60;99.90
40960;DHT22;27842;52.272;8.052;2023-03-14T08:39:52;10.60;99.90
40960;DHT22;27842;52.272;8.052;2023-03-14T08:42:18;10.60;99.90
40960;DHT22;27842;52.272;8.052;2023-03-14T08:44:44;10.70;99.90
40960;DHT22;27842;52.272;8.052;2023-03-14T08:47:10;10.70;99.90
40960;DHT22;27842;52.272;8.052;2023-03-14T08:49:35;10.70;99.90
40960;DHT22;27842;52.272;8.052;2023-03-14T08:52:02;10.70;99.90
40960;DHT22;27842;52.272;8.052;2023-03-14T08:54:29;10.60;99.90
40960;DHT22;27842;52.272;8.052;2023-03-14T08:56:54;10.70;99.90
40960;DHT22;27842;52.272;8.052;2023-03-14T08:59:20;10.70;99.90
40960;DHT22;27842;52.272;8.052;2023-03-14T09:01:45;10.70;99.90
40960;DHT22;27842;52.272;8.052;2023-03-14T09:04:11;10.70;99.90
40960;DHT22;27842;52.272;8.052;2023-03-14T09:06:37;10.70;99.90
40960;DHT22;27842;52.272;8.052;2023-03-14T09:09:02;10.70;99.90
40960;DHT22;27842;52.272;8.052;2023-03-14T09:11:28;10.70;99.90
40960;DHT22;27842;52.272;8.052;2023-03-14T09:13:54;10.70;99.90
40960;DHT22;27842;52.272;8.052;2023-03-14T09:16:19;10.70;99.90
40960;DHT22;27842;52.272;8.052;2023-03-14T09:18:45;10.60;99.90
40960;DHT22;27842;52.272;8.052;2023-03-14T09:21:10;10.60;99.90
40960;DHT22;27842;52.272;8.052;2023-03-14T09:23:36;10.60;99.90
40960;DHT22;27842;52.272;8.052;2023-03-14T09:26:02;10.50;99.90
40960;DHT22;27842;52.272;8.052;2023-03-14T09:28:27;10.50;99.90
40960;DHT22;27842;52.272;8.052;2023-03-14T09:30:53;10.50;99.90
40960;DHT22;27842;52.272;8.052;2023-03-14T09:33:20;10.50;99.90
40960;DHT22;27842;52.272;8.052;2023-03-14T09:35:46;10.50;99.90
40960;DHT22;27842;52.272;8.052;2023-03-14T09:38:12;10.50;99.90
40960;DHT22;27842;52.272;8.052;2023-03-14T09:40:38;10.50;99.90
40960;DHT22;27842;52.272;8.052;2023-03-14T09:43:04;10.50;99.90
40960;DHT22;27842;52.272;8.052;2023-03-14T09:45:36;10.50;99.90
40960;DHT22;27842;52.272;8.052;2023-03-14T09:48:03;10.40;99.90
40960;DHT22;27842;52.272;8.052;2023-03-14T09:50:40;10.30;99.90
40960;DHT22;27842;52.272;8.052;2023-03-14T09:53:12;10.30;99.90
40960;DHT22;27842;52.272;8.052;2023-03-14T09:55:42;10.10;99.90
40960;DHT22;27842;52.272;8.052;2023-03-14T09:58:19;10.00;99.90
40960;DHT22;27842;52.272;8.052;2023-03-14T10:00:44;10.00;99.90
40960;DHT22;27842;52.272;8.052;2023-03-14T10:05:40;9.90;99.90
40960;DHT22;27842;52.272;8.052;2023-03-14T10:08:09;10.00;99.90
40960;DHT22;27842;52.272;8.052;2023-03-14T10:10:35;9.90;99.90
40960;DHT22;27842;52.272;8.052;2023-03-14T10:13:22;9.80;99.90
40960;DHT22;27842;52.272;8.052;2023-03-14T10:15:54;9.60;99.90
40960;DHT22;27842;52.272;8.052;2023-03-14T10:18:20;9.50;99.90
40960;DHT22;27842;52.272;8.052;2023-03-14T10:20:48;9.40;99.90
40960;DHT22;27842;52.272;8.052;2023-03-14T10:26:29;9.10;99.90
40960;DHT22;27842;52.272;8.052;2023-03-14T10:28:32;9.00;99.90
40960;DHT22;27842;52.272;8.052;2023-03-14T10:30:59;8.80;99.90
40960;DHT22;27842;52.272;8.052;2023-03-14T10:33:27;8.70;99.90
40960;DHT22;27842;52.272;8.052;2023-03-14T10:36:01;8.60;99.90
40960;DHT22;27842;52.272;8.052;2023-03-14T10:38:37;8.50;99.90
40960;DHT22;27842;52.272;8.052;2023-03-14T10:41:24;8.50;99.90
40960;DHT22;27842;52.272;8.052;2023-03-14T10:43:56;8.30;99.90
40960;DHT22;27842;52.272;8.052;2023-03-14T10:46:24;8.20;99.90
40960;DHT22;27842;52.272;8.052;2023-03-14T10:48:52;8.00;99.90
40960;DHT22;27842;52.272;8.052;2023-03-14T10:51:27;7.80;99.90
40960;DHT22;27842;52.272;8.052;2023-03-14T10:54:22;7.70;99.90
40960;DHT22;27842;52.272;8.052;2023-03-14T10:57:00;7.70;99.90
40960;DHT22;27842;52.272;8.052;2023-03-14T10:59:32;7.50;99.90
40960;DHT22;27842;52.272;8.052;2023-03-14T11:02:07;7.40;99.90
40960;DHT22;27842;52.272;8.052;2023-03-14T11:04:45;7.40;99.90
40960;DHT22;27842;52.272;8.052;2023-03-14T11:16:21;7.20;99.90
40960;DHT22;27842;52.272;8.052;2023-03-14T11:24:25;7.20;99.90
40960;DHT22;27842;52.272;8.052;2023-03-14T11:27:17;7.20;99.90
40960;DHT22;27842;52.272;8.052;2023-03-14T11:35:24;7.10;99.90
40960;DHT22;27842;52.272;8.052;2023-03-14T11:40:58;7.20;99.90
40960;DHT22;27842;52.272;8.052;2023-03-14T11:43:29;7.20;99.90
40960;DHT22;27842;52.272;8.052;2023-03-14T11:45:59;7.20;99.90
40960;DHT22;27842;52.272;8.052;2023-03-14T11:50:55;7.20;99.90
40960;DHT22;27842;52.272;8.052;2023-03-14T11:53:49;7.30;99.90
40960;DHT22;27842;52.272;8.052;2023-03-14T11:56:19;7.30;99.90
40960;DHT22;27842;52.272;8.052;2023-03-14T11:58:57;7.30;99.90
40960;DHT22;27842;52.272;8.052;2023-03-14T12:01:31;7.30;99.90
40960;DHT22;27842;52.272;8.052;2023-03-14T12:04:06;7.40;99.90
40960;DHT22;27842;52.272;8.052;2023-03-14T12:06:49;7.40;99.90
40960;DHT22;27842;52.272;8.052;2023-03-14T12:09:16;7.40;99.90
40960;DHT22;27842;52.272;8.052;2023-03-14T12:11:47;7.40;99.90
40960;DHT22;27842;52.272;8.052;2023-03-14T12:14:21;7.50;99.90
40960;DHT22;27842;52.272;8.052;2023-03-14T12:16:47;7.60;99.90
40960;DHT22;27842;52.272;8.052;2023-03-14T12:19:40;7.70;99.90
40960;DHT22;27842;52.272;8.052;2023-03-14T12:24:51;7.80;99.90
40960;DHT22;27842;52.272;8.052;2023-03-14T12:27:40;7.90;99.90
40960;DHT22;27842;52.272;8.052;2023-03-14T12:35:50;8.00;99.90
40960;DHT22;27842;52.272;8.052;2023-03-14T12:43:41;7.90;99.90
40960;DHT22;27842;52.272;8.052;2023-03-14T12:46:14;7.90;99.90
40960;DHT22;27842;52.272;8.052;2023-03-14T12:48:44;7.90;99.90
40960;DHT22;27842;52.272;8.052;2023-03-14T12:51:19;7.90;99.90
40960;DHT22;27842;52.272;8.052;2023-03-14T12:57:45;7.90;99.90
40960;DHT22;27842;52.272;8.052;2023-03-14T12:59:45;8.00;99.90
40960;DHT22;27842;52.272;8.052;2023-03-14T13:02:44;8.00;99.90
40960;DHT22;27842;52.272;8.052;2023-03-14T13:05:23;8.00;99.90
40960;DHT22;27842;52.272;8.052;2023-03-14T13:10:20;7.90;99.90
40960;DHT22;27842;52.272;8.052;2023-03-14T13:12:50;7.90;99.90
40960;DHT22;27842;52.272;8.052;2023-03-14T13:15:24;8.00;99.90
40960;DHT22;27842;52.272;8.052;2023-03-14T13:17:54;7.90;99.90
40960;DHT22;27842;52.272;8.052;2023-03-14T13:20:27;8.00;99.90
40960;DHT22;27842;52.272;8.052;2023-03-14T13:22:53;8.00;99.90
40960;DHT22;27842;52.272;8.052;2023-03-14T13:25:19;8.00;99.90
40960;DHT22;27842;52.272;8.052;2023-03-14T13:27:47;8.00;99.90
40960;DHT22;27842;52.272;8.052;2023-03-14T13:30:22;8.00;99.90
40960;DHT22;27842;52.272;8.052;2023-03-14T13:32:49;8.10;99.90
40960;DHT22;27842;52.272;8.052;2023-03-14T13:35:26;8.00;99.90
40960;DHT22;27842;52.272;8.052;2023-03-14T13:38:00;8.00;99.90
40960;DHT22;27842;52.272;8.052;2023-03-14T13:40:32;8.10;99.90
40960;DHT22;27842;52.272;8.052;2023-03-14T13:43:29;8.10;99.90
40960;DHT22;27842;52.272;8.052;2023-03-14T13:46:07;8.10;99.90
40960;DHT22;27842;52.272;8.052;2023-03-14T13:48:46;8.20;99.90
40960;DHT22;27842;52.272;8.052;2023-03-14T13:51:15;8.20;99.90
40960;DHT22;27842;52.272;8.052;2023-03-14T13:53:53;8.30;99.90
40960;DHT22;27842;52.272;8.052;2023-03-14T13:56:21;8.30;99.90
40960;DHT22;27842;52.272;8.052;2023-03-14T13:58:47;8.30;99.90
40960;DHT22;27842;52.272;8.052;2023-03-14T14:01:31;8.40;99.90
40960;DHT22;27842;52.272;8.052;2023-03-14T14:04:02;8.30;99.90
40960;DHT22;27842;52.272;8.052;2023-03-14T14:06:32;8.30;99.90
40960;DHT22;27842;52.272;8.052;2023-03-14T14:09:14;8.40;99.90
40960;DHT22;27842;52.272;8.052;2023-03-14T14:16:58;8.50;99.90
40960;DHT22;27842;52.272;8.052;2023-03-14T14:19:26;8.50;99.90
40960;DHT22;27842;52.272;8.052;2023-03-14T14:21:53;8.40;99.90
40960;DHT22;27842;52.272;8.052;2023-03-14T14:24:22;8.40;99.90
40960;DHT22;27842;52.272;8.052;2023-03-14T14:26:54;8.30;99.90
40960;DHT22;27842;52.272;8.052;2023-03-14T14:29:31;8.30;99.90
40960;DHT22;27842;52.272;8.052;2023-03-14T14:32:09;8.30;99.90
40960;DHT22;27842;52.272;8.052;2023-03-14T14:34:43;8.30;99.90
40960;DHT22;27842;52.272;8.052;2023-03-14T14:37:26;8.30;99.90
40960;DHT22;27842;52.272;8.052;2023-03-14T14:39:55;8.20;99.90
40960;DHT22;27842;52.272;8.052;2023-03-14T14:42:25;8.30;99.90
40960;DHT22;27842;52.272;8.052;2023-03-14T14:44:51;8.40;99.90
40960;DHT22;27842;52.272;8.052;2023-03-14T14:47:23;8.40;99.90
40960;DHT22;27842;52.272;8.052;2023-03-14T14:49:51;8.50;99.90
40960;DHT22;27842;52.272;8.052;2023-03-14T14:52:39;8.40;99.90
40960;DHT22;27842;52.272;8.052;2023-03-14T14:55:32;8.40;99.90
40960;DHT22;27842;52.272;8.052;2023-03-14T14:58:09;8.50;99.90
40960;DHT22;27842;52.272;8.052;2023-03-14T15:00:39;8.50;99.90
40960;DHT22;27842;52.272;8.052;2023-03-14T15:03:13;8.40;99.90
40960;DHT22;27842;52.272;8.052;2023-03-14T15:05:40;8.50;99.90
40960;DHT22;27842;52.272;8.052;2023-03-14T15:08:10;8.40;99.90
40960;DHT22;27842;52.272;8.052;2023-03-14T15:10:36;8.40;99.90
40960;DHT22;27842;52.272;8.052;2023-03-14T15:13:01;8.40;99.90
40960;DHT22;27842;52.272;8.052;2023-03-14T15:15:27;8.40;99.90
40960;DHT22;27842;52.272;8.052;2023-03-14T15:17:53;8.40;99.90
40960;DHT22;27842;52.272;8.052;2023-03-14T15:20:18;8.30;99.90
40960;DHT22;27842;52.272;8.052;2023-03-14T15:22:45;8.30;99.90
40960;DHT22;27842;52.272;8.052;2023-03-14T15:25:12;8.30;99.90
40960;DHT22;27842;52.272;8.052;2023-03-14T15:27:38;8.30;99.90
40960;DHT22;27842;52.272;8.052;2023-03-14T15:30:15;8.20;99.90
40960;DHT22;27842;52.272;8.052;2023-03-14T15:32:41;8.20;99.90
40960;DHT22;27842;52.272;8.052;2023-03-14T15:35:07;8.10;99.90
40960;DHT22;27842;52.272;8.052;2023-03-14T15:37:33;8.10;99.90
40960;DHT22;27842;52.272;8.052;2023-03-14T15:39:59;8.10;99.90
40960;DHT22;27842;52.272;8.052;2023-03-14T15:42:25;8.10;99.90
40960;DHT22;27842;52.272;8.052;2023-03-14T15:44:50;8.10;99.90
40960;DHT22;27842;52.272;8.052;2023-03-14T15:47:16;8.10;99.90
40960;DHT22;27842;52.272;8.052;2023-03-14T15:49:41;8.10;99.90
40960;DHT22;27842;52.272;8.052;2023-03-14T15:52:07;8.10;99.90
40960;DHT22;27842;52.272;8.052;2023-03-14T15:54:34;8.10;99.90
40960;DHT22;27842;52.272;8.052;2023-03-14T15:56:59;8.00;99.90
40960;DHT22;27842;52.272;8.052;2023-03-14T15:59:25;7.90;99.90
40960;DHT22;27842;52.272;8.052;2023-03-14T16:01:51;7.90;99.90
40960;DHT22;27842;52.272;8.052;2023-03-14T16:04:17;7.90;99.90
40960;DHT22;27842;52.272;8.052;2023-03-14T16:06:43;7.80;99.90
40960;DHT22;27842;52.272;8.052;2023-03-14T16:09:10;7.70;99.90
40960;DHT22;27842;52.272;8.052;2023-03-14T16:11:36;7.70;99.90
40960;DHT22;27842;52.272;8.052;2023-03-14T16:14:02;7.70;99.90
40960;DHT22;27842;52.272;8.052;2023-03-14T16:16:27;7.70;99.90
40960;DHT22;27842;52.272;8.052;2023-03-14T16:18:53;7.70;99.90
40960;DHT22;27842;52.272;8.052;2023-03-14T16:21:19;7.70;99.90
40960;DHT22;27842;52.272;8.052;2023-03-14T16:23:45;7.70;99.90
40960;DHT22;27842;52.272;8.052;2023-03-14T16:26:17;7.70;99.90
40960;DHT22;27842;52.272;8.052;2023-03-14T16:28:44;7.60;99.90
40960;DHT22;27842;52.272;8.052;2023-03-14T16:31:16;7.60;99.90
40960;DHT22;27842;52.272;8.052;2023-03-14T16:33:42;7.60;99.90
40960;DHT22;27842;52.272;8.052;2023-03-14T16:36:10;7.50;99.90
40960;DHT22;27842;52.272;8.052;2023-03-14T16:38:38;7.50;99.90
40960;DHT22;27842;52.272;8.052;2023-03-14T16:41:07;7.50;99.90
40960;DHT22;27842;52.272;8.052;2023-03-14T16:43:34;7.50;99.90
40960;DHT22;27842;52.272;8.052;2023-03-14T16:46:03;7.40;99.90